createdAt,value
2023-10-29T00:04:48.956Z,5.50
2023-10-29T00:07:16.547Z,6.20
2023-10-29T00:09:43.977Z,5.60
2023-10-29T00:12:11.457Z,6.20
2023-10-29T00:14:38.944Z,6.80
2023-10-29T00:17:06.415Z,5.10
2023-10-29T00:19:34.058Z,5.40
2023-10-29T00:22:01.519Z,5.60
2023-10-29T00:24:29.043Z,6.20
2023-10-29T00:26:56.518Z,6.60
2023-10-29T00:29:23.966Z,6.20
2023-10-29T00:31:52.892Z,6.40
2023-10-29T00:34:20.356Z,6.10
2023-10-29T00:36:47.880Z,5.80
2023-10-29T00:39:15.417Z,5.80
2023-10-29T00:41:43.447Z,5.70
2023-10-29T00:44:11.094Z,5.00
2023-10-29T00:46:41.872Z,6.70
2023-10-29T00:49:10.195Z,6.30
2023-10-29T00:51:37.645Z,5.70
2023-10-29T00:54:05.257Z,5.60
2023-10-29T00:56:32.778Z,5.80
2023-10-29T00:59:00.232Z,6.60
2023-10-29T01:01:27.875Z,5.80
2023-10-29T01:03:56.243Z,6.30
2023-10-29T01:06:23.904Z,6.30
2023-10-29T01:08:51.841Z,6.40
2023-10-29T01:11:19.409Z,5.90
2023-10-29T01:13:46.858Z,6.30
2023-10-29T01:16:14.444Z,7.10
2023-10-29T01:18:41.896Z,6.40
2023-10-29T01:21:10.274Z,6.90
2023-10-29T01:23:37.896Z,6.60
2023-10-29T01:26:05.391Z,6.10
2023-10-29T01:28:32.922Z,5.80
2023-10-29T01:31:01.670Z,5.70
2023-10-29T01:33:29.167Z,5.70
2023-10-29T01:35:56.833Z,4.90
2023-10-29T01:38:24.320Z,5.40
2023-10-29T01:40:51.837Z,4.80
2023-10-29T01:43:19.376Z,4.80
2023-10-29T01:45:47.092Z,4.30
2023-10-29T01:48:14.813Z,4.10
2023-10-29T01:50:42.402Z,4.60
2023-10-29T01:53:09.906Z,3.80
2023-10-29T01:55:38.246Z,4.30
2023-10-29T01:58:05.850Z,4.30
2023-10-29T02:00:33.437Z,4.20
2023-10-29T02:03:01.206Z,4.80
2023-10-29T02:05:32.227Z,5.00
2023-10-29T02:07:59.767Z,4.50
2023-10-29T02:10:28.059Z,4.20
2023-10-29T02:12:55.576Z,4.50
2023-10-29T02:15:23.372Z,4.40
2023-10-29T02:17:50.935Z,4.00
2023-10-29T02:20:18.552Z,3.90
2023-10-29T02:22:46.177Z,3.90
2023-10-29T02:25:13.680Z,4.10
2023-10-29T02:27:41.165Z,3.80
2023-10-29T02:30:09.134Z,3.60
2023-10-29T02:32:36.777Z,3.30
2023-10-29T02:35:04.796Z,3.10
2023-10-29T02:37:34.908Z,3.30
2023-10-29T02:40:03.573Z,3.20
2023-10-29T02:42:31.024Z,3.40
2023-10-29T02:45:00.384Z,3.70
2023-10-29T02:47:28.022Z,3.30
2023-10-29T02:49:55.804Z,2.70
2023-10-29T02:52:23.369Z,3.10
2023-10-29T02:54:51.225Z,3.90
2023-10-29T02:57:18.881Z,4.00
2023-10-29T02:59:46.452Z,5.30
2023-10-29T03:02:14.026Z,5.20
2023-10-29T03:04:41.913Z,7.10
2023-10-29T03:07:13.133Z,5.40
2023-10-29T03:09:41.208Z,3.90
2023-10-29T03:12:08.752Z,5.00
2023-10-29T03:14:36.374Z,4.90
2023-10-29T03:17:04.207Z,3.40
2023-10-29T03:19:31.716Z,4.00
2023-10-29T03:21:59.262Z,4.40
2023-10-29T03:24:26.779Z,4.20
2023-10-29T03:26:54.821Z,3.90
2023-10-29T03:29:22.347Z,3.60
2023-10-29T03:31:49.834Z,3.40
2023-10-29T03:34:17.730Z,4.40
2023-10-29T03:36:45.264Z,5.00
2023-10-29T03:39:12.852Z,6.80
2023-10-29T03:41:40.428Z,5.90
2023-10-29T03:44:08.300Z,7.00
2023-10-29T03:46:35.813Z,6.10
2023-10-29T03:49:03.383Z,5.30
2023-10-29T03:51:31.413Z,5.00
2023-10-29T03:53:59.146Z,4.40
2023-10-29T03:56:26.684Z,4.90
2023-10-29T03:58:56.509Z,4.20
2023-10-29T04:01:28.287Z,3.90
2023-10-29T04:03:56.437Z,3.90
2023-10-29T04:06:24.492Z,4.50
2023-10-29T04:08:52.040Z,4.80
2023-10-29T04:11:19.746Z,4.90
2023-10-29T04:13:48.205Z,3.90
2023-10-29T04:16:15.708Z,4.20
2023-10-29T04:18:43.402Z,3.80
2023-10-29T04:21:10.837Z,3.60
2023-10-29T04:23:38.310Z,4.50
2023-10-29T04:26:05.795Z,6.20
2023-10-29T04:28:33.305Z,6.90
2023-10-29T04:31:01.689Z,7.70
2023-10-29T04:33:29.657Z,6.00
2023-10-29T04:35:57.541Z,6.90
2023-10-29T04:38:25.283Z,7.00
2023-10-29T04:40:53.407Z,8.00
2023-10-29T04:43:20.884Z,6.20
2023-10-29T04:45:48.909Z,6.80
2023-10-29T04:48:17.782Z,6.10
2023-10-29T04:50:45.539Z,5.50
2023-10-29T04:53:13.015Z,6.60
2023-10-29T04:55:40.492Z,6.30
2023-10-29T04:58:08.029Z,6.60
2023-10-29T05:00:35.484Z,5.40
2023-10-29T05:03:06.978Z,6.40
2023-10-29T05:05:34.662Z,6.10
2023-10-29T05:08:02.118Z,6.30
2023-10-29T05:10:30.024Z,7.40
2023-10-29T05:12:57.995Z,11.30
2023-10-29T05:15:26.176Z,12.30
2023-10-29T05:17:53.862Z,11.60
2023-10-29T05:20:21.337Z,8.70
2023-10-29T05:22:48.824Z,7.20
2023-10-29T05:25:16.492Z,5.60
2023-10-29T05:27:56.412Z,5.50
2023-10-29T05:30:24.262Z,3.50
2023-10-29T05:32:51.794Z,7.00
2023-10-29T05:35:19.491Z,5.20
2023-10-29T05:37:47.037Z,5.50
2023-10-29T05:40:14.601Z,5.70
2023-10-29T05:42:42.201Z,4.70
2023-10-29T05:45:10.454Z,7.30
2023-10-29T05:47:38.202Z,8.70
2023-10-29T05:50:07.446Z,10.70
2023-10-29T05:52:34.988Z,7.50
2023-10-29T05:55:02.935Z,5.90
2023-10-29T05:57:30.591Z,4.80
2023-10-29T05:59:58.213Z,4.60
2023-10-29T06:02:33.380Z,4.90
2023-10-29T06:05:07.398Z,4.80
2023-10-29T06:07:35.370Z,4.20
2023-10-29T06:10:02.916Z,4.70
2023-10-29T06:12:30.731Z,4.50
2023-10-29T06:14:58.320Z,4.50
2023-10-29T06:17:27.465Z,4.30
2023-10-29T06:19:55.305Z,4.20
2023-10-29T06:22:23.010Z,4.90
2023-10-29T06:24:50.800Z,4.60
2023-10-29T06:27:18.560Z,7.80
2023-10-29T06:29:46.116Z,7.10
2023-10-29T06:32:13.772Z,9.80
2023-10-29T06:34:41.237Z,8.80
2023-10-29T06:37:08.707Z,10.00
2023-10-29T06:39:36.150Z,8.40
2023-10-29T06:42:04.091Z,8.50
2023-10-29T06:44:31.591Z,8.60
2023-10-29T06:46:59.123Z,8.60
2023-10-29T06:49:27.205Z,5.90
2023-10-29T06:51:55.071Z,6.00
2023-10-29T06:54:22.747Z,5.80
2023-10-29T06:56:53.087Z,5.10
2023-10-29T06:59:20.578Z,7.60
2023-10-29T07:01:51.677Z,9.90
2023-10-29T07:04:19.362Z,8.70
2023-10-29T07:06:47.972Z,8.10
2023-10-29T07:09:18.776Z,6.90
2023-10-29T07:11:46.649Z,7.60
2023-10-29T07:14:14.942Z,8.10
2023-10-29T07:16:45.947Z,9.20
2023-10-29T07:19:14.399Z,9.40
2023-10-29T07:21:42.080Z,8.90
2023-10-29T07:24:09.963Z,7.70
2023-10-29T07:26:37.656Z,8.90
2023-10-29T07:29:05.225Z,9.00
2023-10-29T07:31:32.668Z,8.00
2023-10-29T07:34:00.168Z,8.70
2023-10-29T07:36:27.825Z,8.40
2023-10-29T07:38:55.514Z,8.00
2023-10-29T07:41:23.434Z,8.40
2023-10-29T07:43:52.935Z,7.70
2023-10-29T07:46:21.787Z,8.10
2023-10-29T07:48:49.264Z,6.20
2023-10-29T07:51:16.740Z,7.30
2023-10-29T07:53:47.475Z,6.80
2023-10-29T07:56:15.210Z,8.20
2023-10-29T07:58:42.971Z,7.80
2023-10-29T08:01:14.508Z,8.20
2023-10-29T08:03:42.617Z,7.60
2023-10-29T08:06:11.270Z,7.80
2023-10-29T08:08:39.526Z,8.60
2023-10-29T08:11:07.590Z,9.00
2023-10-29T08:13:35.098Z,10.90
2023-10-29T08:16:04.302Z,8.30
2023-10-29T08:18:32.059Z,8.40
2023-10-29T08:21:03.451Z,7.20
2023-10-29T08:23:32.837Z,7.70
2023-10-29T08:26:00.381Z,7.40
2023-10-29T08:28:29.288Z,7.60
2023-10-29T08:31:00.335Z,8.70
2023-10-29T08:33:27.976Z,7.50
2023-10-29T08:35:55.788Z,8.90
2023-10-29T08:38:23.421Z,8.50
2023-10-29T08:40:50.973Z,8.70
2023-10-29T08:43:18.539Z,10.00
2023-10-29T08:45:46.139Z,9.10
2023-10-29T08:48:13.850Z,9.90
2023-10-29T08:50:44.570Z,9.70
2023-10-29T08:53:12.164Z,9.40
2023-10-29T08:55:39.720Z,8.60
2023-10-29T08:58:07.695Z,8.20
2023-10-29T09:00:45.865Z,8.80
2023-10-29T09:03:15.371Z,7.70
2023-10-29T09:05:44.517Z,7.80
2023-10-29T09:08:14.173Z,9.90
2023-10-29T09:10:46.893Z,8.50
2023-10-29T09:13:14.641Z,8.80
2023-10-29T09:15:43.361Z,8.10
2023-10-29T09:18:11.068Z,7.60
2023-10-29T09:20:40.181Z,7.70
2023-10-29T09:23:07.774Z,8.20
2023-10-29T09:25:35.351Z,7.80
2023-10-29T09:28:07.202Z,7.50
2023-10-29T09:30:34.760Z,6.90
2023-10-29T09:33:03.069Z,7.60
2023-10-29T09:35:31.145Z,7.60
2023-10-29T09:37:58.791Z,7.10
2023-10-29T09:40:26.749Z,7.50
2023-10-29T09:42:55.356Z,7.00
2023-10-29T09:45:27.405Z,8.30
2023-10-29T09:47:55.175Z,7.20
2023-10-29T09:50:25.652Z,6.60
2023-10-29T09:52:54.298Z,6.10
2023-10-29T09:55:22.252Z,6.10
2023-10-29T09:57:50.375Z,6.00
2023-10-29T10:00:18.066Z,5.70
2023-10-29T10:02:59.545Z,5.90
2023-10-29T10:05:29.401Z,5.20
2023-10-29T10:07:57.586Z,5.10
2023-10-29T10:10:43.465Z,5.50
2023-10-29T10:13:11.650Z,5.90
2023-10-29T10:15:39.307Z,4.60
2023-10-29T10:18:07.265Z,5.10
2023-10-29T10:20:35.295Z,5.00
2023-10-29T10:23:04.240Z,5.40
2023-10-29T10:25:32.749Z,5.40
2023-10-29T10:28:00.941Z,5.50
2023-10-29T10:30:31.740Z,4.90
2023-10-29T10:33:12.688Z,4.50
2023-10-29T10:35:48.070Z,4.60
2023-10-29T10:38:16.294Z,4.70
2023-10-29T10:40:45.918Z,4.10
2023-10-29T10:43:18.930Z,3.70
2023-10-29T10:45:51.404Z,5.30
2023-10-29T10:48:19.383Z,5.50
2023-10-29T10:50:47.706Z,5.40
2023-10-29T10:53:15.637Z,5.50
2023-10-29T10:56:01.351Z,4.30
2023-10-29T10:58:31.035Z,4.20
2023-10-29T11:00:58.794Z,4.10
2023-10-29T11:05:59.321Z,4.20
2023-10-29T11:08:27.004Z,4.10
2023-10-29T11:10:58.803Z,4.50
2023-10-29T11:13:28.164Z,3.60
2023-10-29T11:15:56.875Z,3.70
2023-10-29T11:18:31.739Z,3.70
2023-10-29T11:21:04.983Z,4.10
2023-10-29T11:23:33.996Z,4.00
2023-10-29T11:26:21.410Z,3.90
2023-10-29T11:28:54.191Z,3.80
2023-10-29T11:31:23.006Z,3.30
2023-10-29T11:33:56.927Z,3.90
2023-10-29T11:36:36.637Z,3.10
2023-10-29T11:39:16.741Z,4.30
2023-10-29T11:41:45.748Z,4.00
2023-10-29T11:44:23.384Z,4.70
2023-10-29T11:46:57.482Z,5.30
2023-10-29T11:49:26.086Z,4.00
2023-10-29T11:52:03.428Z,4.80
2023-10-29T11:54:33.580Z,3.70
2023-10-29T11:57:01.605Z,3.60
2023-10-29T11:59:29.236Z,3.30
2023-10-29T12:01:56.798Z,4.50
2023-10-29T12:04:33.599Z,3.50
2023-10-29T12:07:01.567Z,4.30
2023-10-29T12:09:29.218Z,3.50
2023-10-29T12:11:57.488Z,4.00
2023-10-29T12:14:38.871Z,4.30
2023-10-29T12:17:07.767Z,3.80
2023-10-29T12:19:39.367Z,4.10
2023-10-29T12:22:23.883Z,4.00
2023-10-29T12:24:54.919Z,4.70
2023-10-29T12:27:25.615Z,4.00
2023-10-29T12:29:56.545Z,4.70
2023-10-29T12:32:27.804Z,4.90
2023-10-29T12:34:57.781Z,4.40
2023-10-29T12:37:29.186Z,3.80
2023-10-29T12:40:03.266Z,4.60
2023-10-29T12:43:06.531Z,6.00
2023-10-29T12:45:34.109Z,3.80
2023-10-29T12:48:11.225Z,3.50
2023-10-29T12:50:52.257Z,3.80
2023-10-29T12:53:27.095Z,3.30
2023-10-29T12:55:55.105Z,4.40
2023-10-29T12:58:22.823Z,4.00
2023-10-29T13:00:53.011Z,3.70
2023-10-29T13:03:22.932Z,3.70
2023-10-29T13:05:50.681Z,3.30
2023-10-29T13:08:18.913Z,3.60
2023-10-29T13:10:47.808Z,3.80
2023-10-29T13:13:16.930Z,3.10
2023-10-29T13:15:44.973Z,3.80
2023-10-29T13:18:12.805Z,4.20
2023-10-29T13:20:40.707Z,4.80
2023-10-29T13:23:09.086Z,7.20
2023-10-29T13:25:36.894Z,5.60
2023-10-29T13:28:05.444Z,4.30
2023-10-29T13:30:33.515Z,4.40
2023-10-29T13:33:01.179Z,4.70
2023-10-29T13:35:28.840Z,4.70
2023-10-29T13:37:56.921Z,4.00
2023-10-29T13:40:24.482Z,5.40
2023-10-29T13:42:52.247Z,5.00
2023-10-29T13:45:20.143Z,5.70
2023-10-29T13:47:47.892Z,5.20
2023-10-29T13:50:15.697Z,6.50
2023-10-29T13:52:43.201Z,4.80
2023-10-29T13:55:11.172Z,6.00
2023-10-29T13:57:38.836Z,5.50
2023-10-29T14:00:10.289Z,5.30
2023-10-29T14:02:40.903Z,10.60
2023-10-29T14:05:08.693Z,13.30
2023-10-29T14:07:36.864Z,11.90
2023-10-29T14:10:05.367Z,15.70
2023-10-29T14:12:34.460Z,14.90
2023-10-29T14:15:03.184Z,12.70
2023-10-29T14:17:30.958Z,10.90
2023-10-29T14:19:58.873Z,12.90
2023-10-29T14:22:26.999Z,10.70
2023-10-29T14:24:55.222Z,12.50
2023-10-29T14:27:24.059Z,10.80
2023-10-29T14:29:51.959Z,9.20
2023-10-29T14:32:19.900Z,10.40
2023-10-29T14:34:47.823Z,9.60
2023-10-29T14:37:17.057Z,8.90
2023-10-29T14:39:48.432Z,9.80
2023-10-29T14:42:16.082Z,9.90
2023-10-29T14:44:45.875Z,10.20
2023-10-29T14:47:13.610Z,9.80
2023-10-29T14:49:41.073Z,10.00
2023-10-29T14:52:08.893Z,10.40
2023-10-29T14:54:36.641Z,10.20
2023-10-29T14:57:17.892Z,10.50
2023-10-29T14:59:46.380Z,10.80
2023-10-29T15:02:13.880Z,15.80
2023-10-29T15:04:44.678Z,32.10
2023-10-29T15:07:12.154Z,31.50
2023-10-29T15:09:39.640Z,23.90
2023-10-29T15:12:08.663Z,19.50
2023-10-29T15:14:39.281Z,17.40
2023-10-29T15:17:06.777Z,13.40
2023-10-29T15:19:37.312Z,19.60
2023-10-29T15:22:05.453Z,19.90
2023-10-29T15:24:36.127Z,17.40
2023-10-29T15:27:04.046Z,16.10
2023-10-29T15:29:31.561Z,17.70
2023-10-29T15:31:59.957Z,16.20
2023-10-29T15:34:27.505Z,17.10
2023-10-29T15:36:54.961Z,16.00
2023-10-29T15:39:22.667Z,14.40
2023-10-29T15:41:50.461Z,15.20
2023-10-29T15:44:18.549Z,14.60
2023-10-29T15:46:46.109Z,20.30
2023-10-29T15:49:16.854Z,37.20
2023-10-29T15:51:44.550Z,23.00
2023-10-29T15:54:12.189Z,15.20
2023-10-29T15:56:39.757Z,12.50
2023-10-29T15:59:08.894Z,13.10
2023-10-29T16:01:37.241Z,13.30
2023-10-29T16:04:05.511Z,13.60
2023-10-29T16:06:32.982Z,15.30
2023-10-29T16:09:00.489Z,15.00
2023-10-29T16:11:27.939Z,15.50
2023-10-29T16:13:55.473Z,16.30
2023-10-29T16:16:23.068Z,17.30
2023-10-29T16:18:51.103Z,16.00
2023-10-29T16:21:18.674Z,20.00
2023-10-29T16:23:46.190Z,22.90
2023-10-29T16:26:13.953Z,20.80
2023-10-29T16:28:41.560Z,20.90
2023-10-29T16:31:19.935Z,21.10
2023-10-29T16:33:48.692Z,18.70
2023-10-29T16:36:17.748Z,17.70
2023-10-29T16:38:45.836Z,19.20
2023-10-29T16:41:18.449Z,17.00
2023-10-29T16:43:49.296Z,18.60
2023-10-29T16:46:21.810Z,17.00
2023-10-29T16:48:49.671Z,18.30
2023-10-29T16:51:17.444Z,19.10
2023-10-29T16:53:44.960Z,20.60
2023-10-29T16:56:13.696Z,25.50
2023-10-29T16:58:43.697Z,20.30
2023-10-29T17:01:13.647Z,18.80
2023-10-29T17:06:58.565Z,18.40
2023-10-29T17:09:30.065Z,16.80
2023-10-29T17:11:57.837Z,18.60
2023-10-29T17:14:25.451Z,17.50
2023-10-29T17:16:52.956Z,20.80
2023-10-29T17:19:20.804Z,22.10
2023-10-29T17:21:48.733Z,20.20
2023-10-29T17:24:16.341Z,22.20
2023-10-29T17:26:44.110Z,22.00
2023-10-29T17:29:12.110Z,21.60
2023-10-29T17:31:39.894Z,22.00
2023-10-29T17:34:11.075Z,22.90
2023-10-29T17:36:39.065Z,22.80
2023-10-29T17:39:06.947Z,20.20
2023-10-29T17:41:34.584Z,21.40
2023-10-29T17:44:02.196Z,23.30
2023-10-29T17:46:29.806Z,23.10
2023-10-29T17:48:57.330Z,21.90
2023-10-29T17:51:24.933Z,21.80
2023-10-29T17:53:54.339Z,23.30
2023-10-29T17:56:21.978Z,23.20
2023-10-29T17:58:50.004Z,23.30
2023-10-29T18:01:17.712Z,33.50
2023-10-29T18:03:48.036Z,29.40
2023-10-29T18:06:20.402Z,28.00
2023-10-29T18:08:49.099Z,23.30
2023-10-29T18:11:19.121Z,24.90
2023-10-29T18:16:14.840Z,22.70
2023-10-29T18:18:42.403Z,22.70
2023-10-29T18:21:10.106Z,23.90
2023-10-29T18:23:37.706Z,22.50
2023-10-29T18:26:05.499Z,25.10
2023-10-29T18:28:33.120Z,24.50
2023-10-29T18:31:05.558Z,26.60
2023-10-29T18:33:33.282Z,23.80
2023-10-29T18:36:08.719Z,26.10
2023-10-29T18:38:36.826Z,25.00
2023-10-29T18:41:12.338Z,23.80
2023-10-29T18:43:40.033Z,26.80
2023-10-29T18:46:11.708Z,24.70
2023-10-29T18:48:39.340Z,26.60
2023-10-29T18:51:07.115Z,26.30
2023-10-29T18:53:34.737Z,26.70
2023-10-29T18:56:03.957Z,27.20
2023-10-29T18:58:31.656Z,27.70
2023-10-29T19:01:09.552Z,27.80
2023-10-29T19:03:37.393Z,27.60
2023-10-29T19:06:09.423Z,27.60
2023-10-29T19:08:38.303Z,26.80
2023-10-29T19:11:10.330Z,27.90
2023-10-29T19:14:03.666Z,27.20
2023-10-29T19:16:31.428Z,26.90
2023-10-29T19:18:58.917Z,29.80
2023-10-29T19:21:26.713Z,28.30
2023-10-29T19:23:54.333Z,28.30
2023-10-29T19:26:21.986Z,26.60
2023-10-29T19:28:49.483Z,26.50
2023-10-29T19:31:25.633Z,27.90
2023-10-29T19:33:55.731Z,28.00
2023-10-29T19:36:26.806Z,27.70
2023-10-29T19:38:54.407Z,26.90
2023-10-29T19:41:21.977Z,24.10
2023-10-29T19:43:49.500Z,23.40
2023-10-29T19:46:17.079Z,21.60
2023-10-29T19:48:44.613Z,22.20
2023-10-29T19:51:12.225Z,21.20
2023-10-29T19:53:39.857Z,21.50
2023-10-29T19:56:16.950Z,20.10
2023-10-29T19:58:44.650Z,17.30
2023-10-29T20:01:12.195Z,19.00
2023-10-29T20:03:42.658Z,19.10
2023-10-29T20:06:11.300Z,16.70
2023-10-29T20:08:39.941Z,18.60
2023-10-29T20:11:09.897Z,18.70
2023-10-29T20:13:42.124Z,17.40
2023-10-29T20:16:13.245Z,15.70
2023-10-29T20:18:40.951Z,16.40
2023-10-29T20:21:19.977Z,16.70
2023-10-29T20:23:52.323Z,15.80
2023-10-29T20:26:20.761Z,14.20
2023-10-29T20:28:52.180Z,14.00
2023-10-29T20:31:19.915Z,14.70
2023-10-29T20:33:47.853Z,13.10
2023-10-29T20:36:15.811Z,14.20
2023-10-29T20:38:43.569Z,13.70
2023-10-29T20:41:11.152Z,13.80
2023-10-29T20:43:39.144Z,14.10
2023-10-29T20:46:06.857Z,13.60
2023-10-29T20:48:35.165Z,14.30
2023-10-29T20:51:02.834Z,12.50
2023-10-29T20:53:30.540Z,12.10
2023-10-29T20:55:58.055Z,11.20
2023-10-29T20:58:25.609Z,11.20
2023-10-29T21:00:53.153Z,14.00
2023-10-29T21:03:21.287Z,10.20
2023-10-29T21:05:56.979Z,11.00
2023-10-29T21:08:25.527Z,10.70
2023-10-29T21:11:02.729Z,9.80
2023-10-29T21:13:30.444Z,8.70
2023-10-29T21:16:01.282Z,8.30
2023-10-29T21:18:30.490Z,8.00
2023-10-29T21:21:03.209Z,7.40
2023-10-29T21:23:31.270Z,7.80
2023-10-29T21:25:59.050Z,6.90
2023-10-29T21:28:29.944Z,7.50
2023-10-29T21:30:57.767Z,7.40
2023-10-29T21:33:25.289Z,7.90
2023-10-29T21:35:53.274Z,8.40
2023-10-29T21:38:20.737Z,7.90
2023-10-29T21:40:48.304Z,7.80
2023-10-29T21:43:15.928Z,8.90
2023-10-29T21:45:43.517Z,8.80
2023-10-29T21:48:11.754Z,7.40
2023-10-29T21:50:42.497Z,7.80
2023-10-29T21:53:10.623Z,9.00
2023-10-29T21:55:41.339Z,9.00
2023-10-29T21:58:11.376Z,9.50
2023-10-29T22:00:39.022Z,9.50
2023-10-29T22:03:06.803Z,10.00
2023-10-29T22:05:34.396Z,8.90
2023-10-29T22:08:02.128Z,9.10
2023-10-29T22:10:29.811Z,9.10
2023-10-29T22:12:57.378Z,9.30
2023-10-29T22:15:29.393Z,9.00
2023-10-29T22:17:57.228Z,10.10
2023-10-29T22:20:25.512Z,9.90
2023-10-29T22:22:53.043Z,9.60
2023-10-29T22:25:20.817Z,9.40
2023-10-29T22:27:48.367Z,9.20
2023-10-29T22:30:16.209Z,8.80
2023-10-29T22:32:43.794Z,8.30
2023-10-29T22:35:11.802Z,8.10
2023-10-29T22:37:39.360Z,9.10
2023-10-29T22:40:10.739Z,8.80
2023-10-29T22:42:38.240Z,8.90
2023-10-29T22:45:06.229Z,9.20
2023-10-29T22:47:34.119Z,8.70
2023-10-29T22:50:01.936Z,9.20
2023-10-29T22:52:29.434Z,8.60
2023-10-29T22:54:57.666Z,9.00
2023-10-29T22:57:25.252Z,8.90
2023-10-29T22:59:52.894Z,8.80
2023-10-29T23:02:20.443Z,7.70
2023-10-29T23:04:47.980Z,7.80
2023-10-29T23:07:15.433Z,8.10
2023-10-29T23:09:42.982Z,8.30
2023-10-29T23:12:10.518Z,8.60
2023-10-29T23:14:38.077Z,8.30
2023-10-29T23:17:05.588Z,8.30
2023-10-29T23:19:33.043Z,8.30
2023-10-29T23:22:00.483Z,9.00
2023-10-29T23:24:27.948Z,8.90
2023-10-29T23:26:55.550Z,8.50
2023-10-29T23:29:23.949Z,8.80
2023-10-29T23:31:51.554Z,7.80
2023-10-29T23:34:19.094Z,7.90
2023-10-29T23:36:46.521Z,9.30
2023-10-29T23:39:14.065Z,8.20
2023-10-29T23:41:41.556Z,8.00
2023-10-29T23:44:09.113Z,8.50
2023-10-29T23:46:36.693Z,8.10
2023-10-29T23:49:04.330Z,7.50
2023-10-29T23:51:31.869Z,8.30
2023-10-29T23:53:59.437Z,8.90
2023-10-29T23:56:27.031Z,7.90
2023-10-29T23:58:54.478Z,9.20
